Time;durP1;ratioP1;P1;durP2;ratioP2;P2;SDS_P1;SDS_P2;PMS_P1;PMS_P2;Temp;Humidity;BMP_temperature;BMP_pressure;BME280_temperature;BME280_humidity;BME280_pressure;Samples;Min_cycle;Max_cycle;Signal;HPM_P1;HPM_P2
2023/06/19 00:00:30;;;;;;;12.73;10.13;;;22.90;3.90;;;;;;5046129;28;20468;-70
2023/06/19 00:02:57;;;;;;;12.77;10.33;;;22.80;3.80;;;;;;5043077;28;21210;-70
2023/06/19 00:05:24;;;;;;;12.07;9.80;;;22.70;4.10;;;;;;5045854;28;20950;-70
2023/06/19 00:07:51;;;;;;;13.67;10.27;;;22.70;4.40;;;;;;5046975;28;20470;-71
2023/06/19 00:10:18;;;;;;;10.90;9.37;;;22.60;4.40;;;;;;5047236;28;20454;-70
2023/06/19 00:12:45;;;;;;;11.57;9.60;;;22.60;4.30;;;;;;5043033;28;20485;-70
2023/06/19 00:15:12;;;;;;;12.00;10.07;;;22.60;4.20;;;;;;5044396;28;20477;-70
2023/06/19 00:17:41;;;;;;;12.20;10.80;;;22.60;4.10;;;;;;5047921;28;20519;-71
2023/06/19 00:20:09;;;;;;;12.43;10.80;;;22.60;4.10;;;;;;5046409;28;20486;-70
2023/06/19 00:22:35;;;;;;;13.73;11.33;;;22.60;4.30;;;;;;5045578;28;20569;-70
2023/06/19 00:25:02;;;;;;;15.40;11.50;;;22.60;4.30;;;;;;5047282;28;20458;-70
2023/06/19 00:27:29;;;;;;;14.70;10.83;;;22.60;4.30;;;;;;5048566;28;20465;-70
2023/06/19 00:30:01;;;;;;;13.70;10.43;;;22.70;4.30;;;;;;5053346;28;20489;-70
2023/06/19 00:32:28;;;;;;;12.77;11.33;;;22.70;4.30;;;;;;5041647;28;20849;-70
2023/06/19 00:34:56;;;;;;;13.37;11.77;;;22.60;4.70;;;;;;5044592;28;20457;-70
2023/06/19 00:37:23;;;;;;;13.13;10.47;;;22.70;5.20;;;;;;5047523;28;20462;-70
2023/06/19 00:39:49;;;;;;;12.33;10.03;;;22.60;5.30;;;;;;5046514;28;20489;-70
2023/06/19 00:42:16;;;;;;;13.37;11.27;;;22.60;5.80;;;;;;5046055;28;20479;-70
2023/06/19 00:44:43;;;;;;;14.40;11.63;;;22.50;6.10;;;;;;5045020;28;20461;-70
2023/06/19 00:47:10;;;;;;;15.23;11.33;;;22.50;6.20;;;;;;5047548;28;20458;-70
2023/06/19 00:49:36;;;;;;;13.17;11.47;;;22.50;6.30;;;;;;5046363;28;20465;-70
2023/06/19 00:52:06;;;;;;;15.27;12.00;;;22.40;6.20;;;;;;5046136;28;20477;-70
2023/06/19 00:54:33;;;;;;;12.37;11.07;;;22.40;6.40;;;;;;5045338;28;20545;-70
2023/06/19 00:57:00;;;;;;;15.87;11.67;;;22.40;6.50;;;;;;5046410;28;20524;-70
2023/06/19 00:59:28;;;;;;;14.80;12.00;;;22.40;6.60;;;;;;5047531;28;20489;-70
2023/06/19 01:01:55;;;;;;;11.97;10.67;;;22.40;6.60;;;;;;5044915;28;20953;-70
2023/06/19 01:04:21;;;;;;;15.80;12.03;;;22.40;6.80;;;;;;5043787;28;20476;-70
2023/06/19 01:06:58;;;;;;;14.70;11.77;;;22.40;7.00;;;;;;5045632;28;20469;-70
2023/06/19 01:09:31;;;;;;;14.97;11.30;;;22.30;8.00;;;;;;5047034;28;20469;-70
2023/06/19 01:12:03;;;;;;;14.87;12.60;;;22.30;8.20;;;;;;5045081;28;20817;-70
2023/06/19 01:14:37;;;;;;;13.63;12.20;;;22.30;8.40;;;;;;5045795;28;20465;-70
2023/06/19 01:17:05;;;;;;;16.30;12.33;;;22.30;8.70;;;;;;5046367;28;21038;-70
2023/06/19 01:19:32;;;;;;;13.40;11.77;;;22.30;8.70;;;;;;5046167;28;20489;-70
2023/06/19 01:22:03;;;;;;;14.87;13.10;;;22.20;9.00;;;;;;5041906;28;20485;-70
2023/06/19 01:24:30;;;;;;;16.97;11.70;;;22.20;9.60;;;;;;5047441;28;21080;-70
2023/06/19 01:26:57;;;;;;;14.63;12.30;;;22.20;9.90;;;;;;5045883;28;20466;-70
2023/06/19 01:29:24;;;;;;;16.00;13.23;;;22.10;10.00;;;;;;5046699;28;20458;-70
2023/06/19 01:32:00;;;;;;;17.47;12.70;;;22.10;9.70;;;;;;5047966;28;20486;-70
2023/06/19 01:34:30;;;;;;;14.13;12.47;;;22.10;10.00;;;;;;5047434;28;20465;-70
2023/06/19 01:36:57;;;;;;;14.43;12.90;;;22.10;10.10;;;;;;5050616;28;20470;-70
2023/06/19 01:39:27;;;;;;;13.37;11.87;;;22.00;10.00;;;;;;5049482;28;21040;-70
2023/06/19 01:41:56;;;;;;;15.57;13.53;;;22.00;10.10;;;;;;5047579;28;20532;-70
2023/06/19 01:44:22;;;;;;;13.60;11.57;;;21.90;10.30;;;;;;5051516;28;20480;-70
2023/06/19 01:46:50;;;;;;;14.20;12.70;;;21.90;10.60;;;;;;5047038;28;20470;-70
2023/06/19 01:49:17;;;;;;;14.33;12.83;;;21.80;11.20;;;;;;5049185;28;20994;-70
2023/06/19 01:51:44;;;;;;;14.23;11.97;;;21.80;11.10;;;;;;5049746;28;20496;-70
2023/06/19 01:54:10;;;;;;;14.70;13.20;;;21.70;11.20;;;;;;5047271;28;20458;-70
2023/06/19 01:56:39;;;;;;;14.00;12.50;;;21.70;11.20;;;;;;5047692;28;20483;-70
2023/06/19 01:59:06;;;;;;;14.67;13.00;;;21.60;11.10;;;;;;5049982;28;20865;-70
2023/06/19 02:01:32;;;;;;;14.30;12.80;;;21.60;11.00;;;;;;5050143;28;20474;-69
2023/06/19 02:03:59;;;;;;;14.50;12.73;;;21.60;10.90;;;;;;5048465;28;20469;-70
2023/06/19 02:06:26;;;;;;;14.80;13.07;;;21.60;11.10;;;;;;5050173;28;20474;-70
2023/06/19 02:08:53;;;;;;;14.60;13.07;;;21.50;11.40;;;;;;5046882;28;20460;-70
2023/06/19 02:11:19;;;;;;;17.87;11.90;;;21.50;11.10;;;;;;5048321;28;20461;-70
2023/06/19 02:13:48;;;;;;;14.87;13.37;;;21.50;11.10;;;;;;5048786;28;20474;-70
2023/06/19 02:16:15;;;;;;;14.30;12.80;;;21.50;11.50;;;;;;5049342;28;20501;-70
2023/06/19 02:18:41;;;;;;;16.10;12.77;;;21.50;11.50;;;;;;5050251;28;20462;-70
2023/06/19 02:21:08;;;;;;;13.93;12.50;;;21.50;11.40;;;;;;5050184;28;21170;-70
2023/06/19 02:23:35;;;;;;;14.80;13.20;;;21.50;11.70;;;;;;5048951;28;20481;-70
2023/06/19 02:26:02;;;;;;;12.73;11.43;;;21.50;11.80;;;;;;5048101;28;21111;-70
2023/06/19 02:28:28;;;;;;;14.87;13.33;;;21.40;12.10;;;;;;5048504;28;21727;-70
2023/06/19 02:30:56;;;;;;;14.27;12.77;;;21.40;12.00;;;;;;5048326;28;20547;-70
2023/06/19 02:33:23;;;;;;;15.70;14.00;;;21.40;12.00;;;;;;5045240;28;20478;-70
2023/06/19 02:35:50;;;;;;;16.13;13.17;;;21.40;12.10;;;;;;5049756;28;20458;-70
2023/06/19 02:38:21;;;;;;;16.77;13.23;;;21.40;12.20;;;;;;5047939;28;20465;-70
2023/06/19 02:40:47;;;;;;;14.17;12.30;;;21.30;12.10;;;;;;5049654;28;20486;-70
2023/06/19 02:43:15;;;;;;;14.33;12.80;;;21.30;12.10;;;;;;5048497;28;20478;-70
2023/06/19 02:45:42;;;;;;;14.50;12.60;;;21.30;12.10;;;;;;5049092;28;20458;-70
2023/06/19 02:48:10;;;;;;;14.93;13.00;;;21.30;12.40;;;;;;5048385;28;20950;-71
2023/06/19 02:50:37;;;;;;;16.10;13.87;;;21.30;12.60;;;;;;5048439;28;20876;-70
2023/06/19 02:53:04;;;;;;;14.20;12.30;;;21.30;12.50;;;;;;5048315;28;20493;-70
2023/06/19 02:55:31;;;;;;;15.10;13.07;;;21.30;12.20;;;;;;5047709;28;21011;-70
2023/06/19 02:57:57;;;;;;;16.07;14.37;;;21.30;12.80;;;;;;5045092;28;20789;-70
2023/06/19 03:00:24;;;;;;;15.07;13.50;;;21.30;13.00;;;;;;5044568;28;20473;-70
2023/06/19 03:02:51;;;;;;;14.83;13.20;;;21.40;12.60;;;;;;5045855;28;20490;-70
2023/06/19 03:05:19;;;;;;;14.20;12.03;;;21.30;12.70;;;;;;5042018;28;20842;-70
2023/06/19 03:07:46;;;;;;;15.40;13.90;;;21.40;12.30;;;;;;5049308;28;20524;-70
2023/06/19 03:10:13;;;;;;;13.90;12.43;;;21.40;12.10;;;;;;5046428;28;20458;-70
2023/06/19 03:12:40;;;;;;;13.40;12.00;;;21.40;12.10;;;;;;5041671;28;20482;-70
2023/06/19 03:15:07;;;;;;;14.47;11.80;;;21.40;11.80;;;;;;5043362;28;20977;-70
2023/06/19 03:17:34;;;;;;;15.93;12.50;;;21.40;11.90;;;;;;5046102;28;20469;-70
2023/06/19 03:20:01;;;;;;;13.80;12.20;;;21.40;11.80;;;;;;5050030;28;20483;-70
2023/06/19 03:22:29;;;;;;;12.47;10.70;;;21.40;11.70;;;;;;5050481;28;20477;-70
2023/06/19 03:24:56;;;;;;;12.60;11.30;;;21.30;11.90;;;;;;5041007;28;20466;-70
2023/06/19 03:27:22;;;;;;;12.77;11.43;;;21.30;11.70;;;;;;5047100;28;20467;-70
2023/06/19 03:29:49;;;;;;;13.43;11.50;;;21.30;11.70;;;;;;5044607;28;20465;-69
2023/06/19 03:32:16;;;;;;;15.23;12.30;;;21.30;11.80;;;;;;5042770;28;20478;-67
2023/06/19 03:34:43;;;;;;;14.63;11.37;;;21.30;11.90;;;;;;5044485;28;20834;-67
2023/06/19 03:37:10;;;;;;;12.67;11.30;;;21.30;11.90;;;;;;5046824;28;20828;-67
2023/06/19 03:39:38;;;;;;;14.00;11.70;;;21.30;12.00;;;;;;5045793;28;20493;-67
2023/06/19 03:42:05;;;;;;;15.90;12.03;;;21.30;12.00;;;;;;5045267;28;20488;-67
2023/06/19 03:44:32;;;;;;;14.70;13.07;;;21.30;12.00;;;;;;5048809;28;20551;-67
2023/06/19 03:46:59;;;;;;;12.60;10.87;;;21.30;12.00;;;;;;5044780;28;20989;-67
2023/06/19 03:49:25;;;;;;;12.90;10.87;;;21.30;11.80;;;;;;5044196;28;20462;-67
2023/06/19 03:51:54;;;;;;;13.50;11.77;;;21.30;11.90;;;;;;5047525;28;20520;-68
2023/06/19 03:54:21;;;;;;;13.20;11.80;;;21.40;12.00;;;;;;5042943;28;20458;-68
2023/06/19 03:56:49;;;;;;;15.10;13.50;;;21.40;12.00;;;;;;5046397;28;20861;-68
2023/06/19 03:59:16;;;;;;;12.73;11.43;;;21.50;12.00;;;;;;5044634;28;20469;-68
2023/06/19 04:01:42;;;;;;;14.73;10.77;;;21.50;12.00;;;;;;5048317;28;20496;-68
2023/06/19 04:04:09;;;;;;;13.70;12.17;;;21.60;12.00;;;;;;5047304;28;20458;-68
2023/06/19 04:06:36;;;;;;;15.40;10.60;;;21.60;12.00;;;;;;5043530;28;20944;-68
2023/06/19 04:09:03;;;;;;;12.87;10.50;;;21.60;11.80;;;;;;5047659;28;20462;-68
2023/06/19 04:11:29;;;;;;;12.43;11.13;;;21.70;12.00;;;;;;5046168;28;20454;-68
2023/06/19 04:13:57;;;;;;;14.80;11.07;;;21.70;11.90;;;;;;5053111;22;20514;-68
2023/06/19 04:16:24;;;;;;;13.57;12.10;;;21.70;11.90;;;;;;5026997;28;20459;-68
2023/06/19 04:18:51;;;;;;;12.03;10.33;;;21.80;11.70;;;;;;5025160;28;20478;-67
2023/06/19 04:21:18;;;;;;;13.20;11.37;;;21.90;11.70;;;;;;5029741;28;20477;-68
2023/06/19 04:23:44;;;;;;;11.57;10.37;;;21.90;11.70;;;;;;5028619;28;20486;-68
2023/06/19 04:26:13;;;;;;;12.97;11.17;;;22.00;11.70;;;;;;5025298;28;20845;-69
2023/06/19 04:28:41;;;;;;;12.47;10.53;;;22.00;11.60;;;;;;5028264;28;20943;-67
2023/06/19 04:31:09;;;;;;;12.30;10.00;;;22.20;11.50;;;;;;5026695;28;21040;-68
2023/06/19 04:33:36;;;;;;;11.50;10.10;;;22.30;11.40;;;;;;5013020;28;20479;-69
2023/06/19 04:36:03;;;;;;;11.37;10.10;;;22.80;10.90;;;;;;5022838;28;20467;-69
2023/06/19 04:38:30;;;;;;;11.07;9.80;;;23.50;10.10;;;;;;5033714;28;20459;-69
2023/06/19 04:40:57;;;;;;;11.57;9.30;;;24.50;8.60;;;;;;5028895;28;20493;-69
2023/06/19 04:43:24;;;;;;;10.50;8.93;;;25.60;6.10;;;;;;5027005;28;20478;-69
2023/06/19 04:45:51;;;;;;;12.03;8.53;;;26.70;4.40;;;;;;5034623;28;20465;-68
2023/06/19 04:48:19;;;;;;;13.27;8.63;;;27.60;2.70;;;;;;5054373;28;20453;-68
2023/06/19 04:50:46;;;;;;;10.30;8.40;;;28.00;1.90;;;;;;5039298;28;20447;-69
2023/06/19 04:53:12;;;;;;;10.40;8.73;;;28.00;1.80;;;;;;5028039;28;20866;-69
2023/06/19 04:55:39;;;;;;;9.93;8.93;;;28.40;1.10;;;;;;5029138;28;20470;-69
2023/06/19 04:58:06;;;;;;;9.93;8.40;;;28.60;1.00;;;;;;5029694;28;20551;-69
2023/06/19 05:00:33;;;;;;;10.23;8.80;;;28.20;1.00;;;;;;5033411;28;20585;-69
2023/06/19 05:03:00;;;;;;;12.20;8.00;;;27.80;1.40;;;;;;5036740;28;20482;-68
2023/06/19 05:05:29;;;;;;;14.60;8.93;;;27.30;2.30;;;;;;5032416;28;20455;-68
2023/06/19 05:07:56;;;;;;;12.17;8.50;;;26.80;2.70;;;;;;5025728;28;20927;-69
2023/06/19 05:10:22;;;;;;;11.00;8.47;;;26.50;3.50;;;;;;5026264;28;20449;-69
2023/06/19 05:12:49;;;;;;;14.53;9.43;;;26.10;4.30;;;;;;5027860;28;20482;-69
2023/06/19 05:15:16;;;;;;;11.30;8.80;;;25.80;4.60;;;;;;5029557;28;20463;-68
2023/06/19 05:17:46;;;;;;;10.40;9.20;;;25.60;5.10;;;;;;5033318;28;20939;-68
2023/06/19 05:20:13;;;;;;;11.57;9.00;;;25.40;5.50;;;;;;5030044;28;20486;-69
2023/06/19 05:22:41;;;;;;;11.60;7.60;;;25.20;5.80;;;;;;5026900;28;20479;-68
2023/06/19 05:25:09;;;;;;;9.80;8.23;;;25.10;6.20;;;;;;5028177;28;20455;-69
2023/06/19 05:27:36;;;;;;;9.90;7.73;;;24.90;6.50;;;;;;5029017;28;20466;-68
2023/06/19 05:30:03;;;;;;;9.90;8.20;;;24.80;6.90;;;;;;5028370;28;20917;-68
2023/06/19 05:32:30;;;;;;;11.10;8.37;;;24.70;7.30;;;;;;5024921;28;20478;-69
2023/06/19 05:34:57;;;;;;;9.60;8.40;;;24.60;7.60;;;;;;5032655;28;20461;-69
2023/06/19 05:37:24;;;;;;;11.93;8.53;;;24.50;7.70;;;;;;5030290;28;20466;-69
2023/06/19 05:39:52;;;;;;;11.17;7.50;;;24.40;7.80;;;;;;5032813;28;20458;-69
2023/06/19 05:42:18;;;;;;;11.47;8.00;;;24.40;8.00;;;;;;5027049;28;20489;-68
2023/06/19 05:44:45;;;;;;;9.70;8.20;;;24.40;8.00;;;;;;5033563;28;20459;-69
2023/06/19 05:47:12;;;;;;;32.40;11.43;;;24.30;8.10;;;;;;5030302;28;20462;-68
2023/06/19 05:49:40;;;;;;;36.70;14.27;;;24.30;8.10;;;;;;5028307;28;20541;-69
2023/06/19 05:52:09;;;;;;;17.77;9.53;;;24.30;8.20;;;;;;5029432;28;20971;-69
2023/06/19 05:54:35;;;;;;;14.27;9.40;;;24.30;8.30;;;;;;5036492;28;20536;-68
2023/06/19 05:57:03;;;;;;;17.20;8.40;;;24.30;8.30;;;;;;5025438;28;20784;-68
2023/06/19 05:59:30;;;;;;;13.80;9.07;;;24.40;8.20;;;;;;5026782;28;20466;-69
2023/06/19 06:01:57;;;;;;;10.60;6.93;;;24.30;8.30;;;;;;5030087;28;20494;-69
2023/06/19 06:04:24;;;;;;;13.20;8.30;;;24.40;8.20;;;;;;5030990;28;20455;-68
2023/06/19 06:06:50;;;;;;;12.23;8.30;;;24.40;8.20;;;;;;5030056;28;20471;-69
2023/06/19 06:09:17;;;;;;;9.90;7.97;;;24.40;8.30;;;;;;5031982;28;20466;-69
2023/06/19 06:11:44;;;;;;;10.10;8.50;;;24.40;8.30;;;;;;5033778;28;20863;-69
2023/06/19 06:14:12;;;;;;;10.50;8.00;;;24.30;8.70;;;;;;5030431;28;20489;-69
2023/06/19 06:16:39;;;;;;;14.27;8.30;;;24.30;8.60;;;;;;5031320;28;20458;-68
2023/06/19 06:19:06;;;;;;;10.90;8.30;;;24.30;8.60;;;;;;5031461;28;20451;-70
2023/06/19 06:21:34;;;;;;;11.87;8.70;;;24.20;8.70;;;;;;5031849;28;20977;-69
2023/06/19 06:24:01;;;;;;;9.13;7.17;;;24.20;9.10;;;;;;5030897;28;20457;-69
2023/06/19 06:26:28;;;;;;;11.00;7.90;;;24.20;8.90;;;;;;5033115;28;20475;-68
2023/06/19 06:28:55;;;;;;;9.60;7.53;;;24.20;8.60;;;;;;5031652;28;20541;-69
2023/06/19 06:31:24;;;;;;;14.00;8.33;;;24.20;8.60;;;;;;5036659;28;20493;-69
2023/06/19 06:33:51;;;;;;;11.57;7.87;;;24.20;8.60;;;;;;5034410;28;20459;-68
2023/06/19 06:36:18;;;;;;;10.17;6.87;;;24.20;8.40;;;;;;5033332;28;20466;-69
2023/06/19 06:38:44;;;;;;;20.00;8.30;;;24.30;8.90;;;;;;5033571;28;20459;-68
2023/06/19 06:41:11;;;;;;;10.10;7.33;;;24.30;8.40;;;;;;5036589;28;20571;-68
2023/06/19 06:43:40;;;;;;;12.20;7.77;;;24.40;8.50;;;;;;5035884;28;20982;-68
2023/06/19 06:46:06;;;;;;;10.53;7.40;;;24.40;8.50;;;;;;5032612;28;20550;-69
2023/06/19 06:48:35;;;;;;;27.70;8.70;;;24.50;8.30;;;;;;5040703;28;20454;-69
2023/06/19 06:51:01;;;;;;;19.80;7.80;;;24.70;7.80;;;;;;5039027;28;20454;-68
2023/06/19 06:53:29;;;;;;;19.37;7.60;;;24.90;7.60;;;;;;5033179;28;20471;-69
2023/06/19 06:55:55;;;;;;;13.10;6.40;;;25.50;6.80;;;;;;5030987;28;20463;-69
2023/06/19 06:58:22;;;;;;;11.60;6.17;;;26.20;5.80;;;;;;5029645;28;20458;-69
2023/06/19 07:00:50;;;;;;;24.03;8.97;;;26.80;4.90;;;;;;5029505;28;20476;-69
2023/06/19 07:03:17;;;;;;;11.27;6.53;;;27.80;3.80;;;;;;5037179;28;20486;-69
2023/06/19 07:05:46;;;;;;;10.70;6.23;;;29.70;1.70;;;;;;5038098;28;20533;-69
2023/06/19 07:08:12;;;;;;;9.20;5.30;;;31.20;1.00;;;;;;5035897;28;20955;-68
2023/06/19 07:10:39;;;;;;;7.40;4.90;;;31.40;1.00;;;;;;5035319;28;20481;-67
2023/06/19 07:13:06;;;;;;;7.83;4.77;;;31.50;1.00;;;;;;5031765;28;20471;-68
2023/06/19 07:15:33;;;;;;;10.37;5.57;;;31.40;1.00;;;;;;5031151;28;20473;-68
2023/06/19 07:17:59;;;;;;;10.00;4.87;;;31.10;1.00;;;;;;5037277;28;20825;-69
2023/06/19 07:20:26;;;;;;;6.80;4.20;;;30.70;1.00;;;;;;5029826;28;20462;-68
2023/06/19 07:22:55;;;;;;;8.57;6.10;;;30.20;1.00;;;;;;5034296;28;20504;-68
2023/06/19 07:25:24;;;;;;;8.07;4.87;;;29.70;1.00;;;;;;5035176;28;20458;-69
2023/06/19 07:27:51;;;;;;;7.00;5.43;;;29.20;1.00;;;;;;5030107;28;20463;-68
2023/06/19 07:30:18;;;;;;;9.17;5.40;;;28.80;1.00;;;;;;5039172;28;20481;-69
2023/06/19 07:32:45;;;;;;;7.53;5.50;;;28.50;1.00;;;;;;5034202;28;20475;-70
2023/06/19 07:35:12;;;;;;;41.03;10.77;;;28.20;1.40;;;;;;5027635;28;20498;-68
2023/06/19 07:37:38;;;;;;;12.00;6.00;;;28.00;2.40;;;;;;5029191;28;20463;-68
2023/06/19 07:40:08;;;;;;;12.90;5.37;;;27.70;2.60;;;;;;5038645;28;20463;-68
2023/06/19 07:42:34;;;;;;;6.90;5.07;;;27.60;2.50;;;;;;5037745;28;20489;-68
2023/06/19 07:45:01;;;;;;;8.80;5.40;;;27.40;2.70;;;;;;5037041;28;20459;-68
2023/06/19 07:47:28;;;;;;;11.80;7.13;;;27.30;3.20;;;;;;5029559;28;20538;-69
2023/06/19 07:49:55;;;;;;;7.93;4.90;;;27.30;3.20;;;;;;5035047;28;20455;-69
2023/06/19 07:52:22;;;;;;;6.70;5.20;;;27.30;3.20;;;;;;5037423;28;20474;-70
2023/06/19 07:54:52;;;;;;;8.30;5.40;;;27.30;3.40;;;;;;5037585;28;20450;-68
2023/06/19 07:57:20;;;;;;;6.93;4.60;;;27.20;3.70;;;;;;5060252;28;20435;-69
2023/06/19 07:59:47;;;;;;;8.60;5.90;;;27.20;4.10;;;;;;5046259;28;21053;-68
2023/06/19 08:02:14;;;;;;;12.30;5.90;;;27.20;4.30;;;;;;5030972;28;20994;-69
2023/06/19 08:04:40;;;;;;;10.03;6.20;;;27.40;4.00;;;;;;5030566;28;20463;-69
2023/06/19 08:07:07;;;;;;;10.17;6.00;;;28.00;3.30;;;;;;5033079;28;20485;-68
2023/06/19 08:09:34;;;;;;;12.97;6.30;;;28.50;2.20;;;;;;5032235;28;20488;-69
2023/06/19 08:12:01;;;;;;;11.17;5.80;;;28.80;1.50;;;;;;5033864;28;20483;-68
2023/06/19 08:14:29;;;;;;;8.20;6.10;;;29.10;1.50;;;;;;5028423;28;20470;-68
2023/06/19 08:16:56;;;;;;;7.73;5.40;;;29.40;1.20;;;;;;5037012;28;20463;-69
2023/06/19 08:19:23;;;;;;;8.00;5.90;;;29.70;1.10;;;;;;5025763;28;20459;-69
2023/06/19 08:21:50;;;;;;;11.63;5.73;;;29.80;1.00;;;;;;5029664;28;20501;-68
2023/06/19 08:24:17;;;;;;;8.97;5.93;;;29.60;1.00;;;;;;5035528;28;20455;-69
2023/06/19 08:26:43;;;;;;;8.10;6.20;;;29.30;1.20;;;;;;5038239;28;20459;-69
2023/06/19 08:29:10;;;;;;;6.90;5.57;;;28.90;1.10;;;;;;5035748;28;20485;-68
2023/06/19 08:31:38;;;;;;;8.87;5.93;;;28.70;1.60;;;;;;5027965;28;20478;-68
2023/06/19 08:34:09;;;;;;;7.97;6.50;;;28.40;2.10;;;;;;5029815;28;20460;-69
2023/06/19 08:36:35;;;;;;;10.93;6.10;;;28.40;2.60;;;;;;5035029;28;20554;-68
2023/06/19 08:39:03;;;;;;;7.60;6.00;;;28.50;2.50;;;;;;5035417;28;20463;-69
2023/06/19 08:41:30;;;;;;;6.90;5.20;;;29.40;2.00;;;;;;5033492;28;20482;-70
2023/06/19 08:43:57;;;;;;;9.30;5.90;;;31.00;1.00;;;;;;5027423;28;20455;-68
2023/06/19 08:46:24;;;;;;;7.80;5.40;;;32.50;1.00;;;;;;5033208;28;20517;-68
2023/06/19 08:48:55;;;;;;;7.90;5.40;;;34.90;1.00;;;;;;5035035;28;20822;-69
2023/06/19 08:51:22;;;;;;;8.20;5.30;;;38.00;1.00;;;;;;5025503;28;21021;-69
2023/06/19 08:53:51;;;;;;;10.87;6.03;;;41.20;1.00;;;;;;5032685;28;20462;-69
2023/06/19 08:56:18;;;;;;;9.37;5.60;;;43.20;1.00;;;;;;5032107;28;20451;-68
2023/06/19 08:58:45;;;;;;;9.90;5.73;;;42.70;1.00;;;;;;5029070;28;20463;-70
2023/06/19 09:01:13;;;;;;;7.00;5.37;;;41.40;1.00;;;;;;5032555;28;20477;-69
2023/06/19 09:03:39;;;;;;;9.37;5.47;;;40.30;1.00;;;;;;5035631;28;20484;-69
2023/06/19 09:06:09;;;;;;;11.70;5.73;;;39.90;1.00;;;;;;5032290;28;20462;-69
2023/06/19 09:08:37;;;;;;;7.93;5.40;;;39.10;1.00;;;;;;5027783;28;20470;-69
2023/06/19 09:11:05;;;;;;;6.70;4.77;;;39.60;1.00;;;;;;5029992;28;20451;-69
2023/06/19 09:13:33;;;;;;;7.13;4.90;;;39.40;1.00;;;;;;5027444;28;20490;-69
2023/06/19 09:16:02;;;;;;;8.40;5.20;;;41.60;1.00;;;;;;5028429;28;20463;-70
2023/06/19 09:18:30;;;;;;;8.50;4.70;;;43.80;1.00;;;;;;5029476;28;20462;-69
2023/06/19 09:20:57;;;;;;;6.27;5.13;;;44.90;1.00;;;;;;5034541;28;20514;-69
2023/06/19 09:23:26;;;;;;;5.80;4.20;;;44.70;1.00;;;;;;5026666;28;20482;-69
2023/06/19 09:25:54;;;;;;;9.43;4.40;;;44.20;1.00;;;;;;5031718;28;20462;-69
2023/06/19 09:28:23;;;;;;;5.10;3.60;;;43.60;1.00;;;;;;5026123;28;20471;-71
2023/06/19 09:30:58;;;;;;;8.67;4.27;;;42.70;1.00;;;;;;5029340;28;20479;-69
2023/06/19 09:33:26;;;;;;;6.20;4.60;;;41.80;1.00;;;;;;5027269;28;20470;-69
2023/06/19 09:35:55;;;;;;;6.73;4.23;;;40.80;1.00;;;;;;5025843;28;20462;-68
2023/06/19 09:38:25;;;;;;;7.67;4.43;;;39.90;1.00;;;;;;5030736;28;20509;-68
2023/06/19 09:40:54;;;;;;;8.20;4.10;;;39.00;1.00;;;;;;5028214;28;20455;-69
2023/06/19 09:43:25;;;;;;;7.97;4.70;;;38.30;1.00;;;;;;5032201;28;21092;-69
2023/06/19 09:45:55;;;;;;;6.60;4.50;;;37.60;1.00;;;;;;5027818;28;20529;-69
2023/06/19 09:48:30;;;;;;;7.07;4.20;;;37.10;1.00;;;;;;5032909;28;20458;-69
2023/06/19 09:51:03;;;;;;;7.03;4.40;;;36.70;1.00;;;;;;5026928;28;20454;-70
2023/06/19 09:53:30;;;;;;;6.63;4.60;;;36.20;1.00;;;;;;5033462;28;20470;-69
2023/06/19 09:55:58;;;;;;;8.07;4.73;;;35.60;1.00;;;;;;5034279;28;20455;-69
2023/06/19 09:58:25;;;;;;;8.50;4.90;;;35.30;1.00;;;;;;5031813;28;20458;-69
2023/06/19 10:00:54;;;;;;;6.87;5.10;;;34.90;1.00;;;;;;5035341;28;20470;-69
2023/06/19 10:03:22;;;;;;;8.13;5.20;;;34.60;1.00;;;;;;5037161;28;20481;-69
2023/06/19 10:05:58;;;;;;;7.13;5.20;;;34.40;1.00;;;;;;5040903;28;20465;-69
2023/06/19 10:08:31;;;;;;;6.70;4.57;;;34.00;1.00;;;;;;5034918;28;20459;-69
2023/06/19 10:10:59;;;;;;;6.20;4.57;;;33.80;1.00;;;;;;5035001;28;20459;-68
2023/06/19 10:13:33;;;;;;;6.57;4.90;;;33.80;1.00;;;;;;5059946;22;20446;-70
2023/06/19 10:16:00;;;;;;;6.70;4.53;;;34.10;1.00;;;;;;5062039;28;20457;-69
2023/06/19 10:18:27;;;;;;;7.63;5.20;;;34.20;1.00;;;;;;5066590;28;20496;-69
2023/06/19 10:20:55;;;;;;;6.40;4.50;;;34.30;1.00;;;;;;5058001;28;20453;-69
2023/06/19 10:23:23;;;;;;;6.20;4.13;;;34.10;1.00;;;;;;5056850;28;21036;-69
2023/06/19 10:25:57;;;;;;;6.17;4.00;;;33.90;1.00;;;;;;5058800;28;20469;-69
2023/06/19 10:28:26;;;;;;;6.73;4.53;;;34.00;1.00;;;;;;5056848;28;20460;-69
2023/06/19 10:30:55;;;;;;;6.00;3.80;;;34.20;1.00;;;;;;5057053;28;20469;-70
2023/06/19 10:33:22;;;;;;;6.83;4.67;;;34.20;1.00;;;;;;5060326;28;20480;-70
2023/06/19 10:35:48;;;;;;;7.40;4.70;;;34.40;1.00;;;;;;5053533;28;20967;-71
2023/06/19 10:38:16;;;;;;;5.57;4.33;;;34.50;1.00;;;;;;5054038;28;20455;-70
2023/06/19 10:40:44;;;;;;;5.60;4.20;;;34.70;1.00;;;;;;5051196;28;21131;-69
2023/06/19 10:43:10;;;;;;;7.47;4.63;;;34.80;1.00;;;;;;5054666;28;20598;-70
2023/06/19 10:45:38;;;;;;;6.70;4.40;;;34.80;1.00;;;;;;5057892;28;20464;-70
2023/06/19 10:48:06;;;;;;;7.20;5.10;;;34.90;1.00;;;;;;5055164;28;20477;-69
2023/06/19 10:50:38;;;;;;;6.10;4.50;;;35.00;1.00;;;;;;5052258;28;20454;-69
2023/06/19 10:53:05;;;;;;;6.40;4.00;;;35.00;1.00;;;;;;5059297;28;20474;-70
2023/06/19 10:55:31;;;;;;;7.10;4.03;;;34.70;1.00;;;;;;5057335;28;20471;-69
2023/06/19 10:57:58;;;;;;;5.90;4.00;;;34.30;1.00;;;;;;5046919;28;20467;-69
2023/06/19 11:00:30;;;;;;;8.57;4.60;;;33.90;1.00;;;;;;5052273;28;20464;-69
2023/06/19 11:02:59;;;;;;;7.23;4.60;;;33.50;1.00;;;;;;5054284;28;20482;-69
2023/06/19 11:05:28;;;;;;;12.77;4.73;;;33.10;1.00;;;;;;5049433;28;20453;-69
2023/06/19 11:07:56;;;;;;;5.90;3.80;;;32.60;1.00;;;;;;5051844;28;20458;-69
2023/06/19 11:10:24;;;;;;;5.83;4.07;;;32.30;1.00;;;;;;5056252;28;20461;-69
2023/06/19 11:12:54;;;;;;;6.83;3.67;;;31.90;1.00;;;;;;5054266;28;20487;-70
2023/06/19 11:15:20;;;;;;;6.20;3.27;;;31.70;1.00;;;;;;5050151;28;20469;-69
2023/06/19 11:17:48;;;;;;;8.20;3.80;;;31.50;1.00;;;;;;5047586;28;20561;-70
2023/06/19 11:20:16;;;;;;;5.50;3.33;;;31.50;1.00;;;;;;5048191;28;20470;-69
2023/06/19 11:22:43;;;;;;;7.93;3.67;;;31.40;1.00;;;;;;5049782;28;20974;-69
2023/06/19 11:25:11;;;;;;;6.40;4.40;;;31.40;1.00;;;;;;5048211;28;20477;-71
2023/06/19 11:27:40;;;;;;;6.73;3.40;;;31.30;1.00;;;;;;5051255;28;20464;-70
2023/06/19 11:30:09;;;;;;;5.60;3.50;;;31.20;1.00;;;;;;5045550;28;20465;-70
2023/06/19 11:32:40;;;;;;;7.47;3.90;;;31.20;1.00;;;;;;5042521;28;20525;-70
2023/06/19 11:35:10;;;;;;;6.37;4.00;;;31.10;1.00;;;;;;5047535;28;20520;-70
2023/06/19 11:37:41;;;;;;;5.90;3.87;;;31.00;1.00;;;;;;5049279;28;20501;-70
2023/06/19 11:40:15;;;;;;;7.83;4.20;;;31.00;1.00;;;;;;5048751;28;21072;-70
2023/06/19 11:42:48;;;;;;;7.70;4.67;;;31.00;1.00;;;;;;5046344;28;20589;-70
2023/06/19 11:45:16;;;;;;;6.73;3.73;;;31.00;1.00;;;;;;5048198;28;20458;-70
2023/06/19 11:47:45;;;;;;;5.97;4.13;;;30.90;1.00;;;;;;5048705;28;20469;-70
2023/06/19 11:50:12;;;;;;;11.47;4.80;;;30.90;1.00;;;;;;5046099;28;21355;-71
2023/06/19 11:52:40;;;;;;;8.60;4.17;;;30.80;1.00;;;;;;5049704;28;20473;-70
2023/06/19 11:55:08;;;;;;;6.70;4.80;;;30.60;1.00;;;;;;5046605;28;20462;-70
2023/06/19 11:57:35;;;;;;;6.60;4.17;;;30.60;1.00;;;;;;5046021;28;20479;-70
2023/06/19 12:00:03;;;;;;;5.93;4.10;;;30.60;1.00;;;;;;5047861;28;20469;-70
2023/06/19 12:02:30;;;;;;;6.13;4.23;;;30.60;1.00;;;;;;5047529;28;20470;-70
2023/06/19 12:04:57;;;;;;;7.67;4.77;;;30.50;1.00;;;;;;5050027;28;21005;-69
2023/06/19 12:07:25;;;;;;;5.83;4.00;;;30.50;1.00;;;;;;5046561;28;20468;-69
2023/06/19 12:09:53;;;;;;;6.10;4.20;;;30.40;1.00;;;;;;5057018;28;20573;-69
2023/06/19 12:12:20;;;;;;;6.60;3.80;;;30.50;1.00;;;;;;5058930;28;20996;-70
2023/06/19 12:14:46;;;;;;;6.60;3.83;;;30.40;1.00;;;;;;5054122;28;20465;-70
2023/06/19 12:17:13;;;;;;;7.10;4.40;;;30.20;1.00;;;;;;5051095;28;20474;-69
2023/06/19 12:19:40;;;;;;;5.90;3.77;;;30.20;1.00;;;;;;5045340;28;20834;-69
2023/06/19 12:22:06;;;;;;;6.43;4.30;;;30.20;1.00;;;;;;5046383;28;20477;-69
2023/06/19 12:24:33;;;;;;;6.67;3.90;;;30.20;1.00;;;;;;5047804;28;20469;-70
2023/06/19 12:27:01;;;;;;;6.70;4.00;;;30.30;1.00;;;;;;5047547;28;20466;-69
2023/06/19 12:29:29;;;;;;;6.10;3.47;;;30.30;1.00;;;;;;5048590;28;20857;-69
2023/06/19 12:32:01;;;;;;;5.50;3.70;;;30.30;1.00;;;;;;5044387;28;20974;-69
2023/06/19 12:34:28;;;;;;;6.67;4.23;;;30.40;1.00;;;;;;5046347;28;20501;-70
2023/06/19 12:36:56;;;;;;;6.27;3.83;;;30.40;1.00;;;;;;5048727;28;20491;-69
2023/06/19 12:39:24;;;;;;;6.30;4.23;;;30.50;1.00;;;;;;5046602;28;20458;-69
2023/06/19 12:41:51;;;;;;;5.50;3.80;;;30.40;1.00;;;;;;5049265;28;20506;-70
2023/06/19 12:44:19;;;;;;;7.63;4.50;;;30.40;1.00;;;;;;5045505;28;20969;-69
2023/06/19 12:46:46;;;;;;;6.83;4.27;;;30.50;1.00;;;;;;5044830;28;20454;-70